Meldreth, United Kingdom
Current Conditions -  °F | °C
As of 1:20 PM on Saturday 25 Oct 2014 (Local Time) from EGSC Reporting Station
Few Clouds Few Clouds  
Wind Chill: 14°   Ceiling: Unl
Heat Index: 14°   Visibility: 6mi
Dew Point:   Wind: 15mph
Humidity: 72%   Direction: 230°SW
Pressure: 30.03"   Gusts: NA
Location:  52.09°N, 0.01°E
Report Text: EGSC 251220Z 23013KT 180V260 9999 FEW025 14/09 Q1017
Loading
Personal Weather Stations






























Interactive Weather Map
Tropical Storm Tracking
New forecast layout! Learn more

10-Day Weather Forecast

Advertisements
Track Severe Weather on mobile